createdAt,value
2019-03-19T00:00:28.923Z,0.70
2019-03-19T00:02:58.502Z,0.60
2019-03-19T00:05:27.891Z,0.63
2019-03-19T00:07:57.284Z,0.70
2019-03-19T00:10:26.729Z,0.60
2019-03-19T00:12:56.162Z,0.57
2019-03-19T00:15:25.605Z,0.60
2019-03-19T00:17:55.084Z,0.60
2019-03-19T00:20:24.588Z,0.60
2019-03-19T00:22:54.007Z,0.60
2019-03-19T00:25:29.808Z,0.57
2019-03-19T00:27:54.828Z,0.60
2019-03-19T00:30:24.406Z,0.60
2019-03-19T00:32:53.850Z,0.50
2019-03-19T00:35:23.337Z,0.60
2019-03-19T00:37:52.826Z,0.60
2019-03-19T00:40:22.232Z,0.60
2019-03-19T00:42:51.750Z,0.60
2019-03-19T00:45:21.139Z,0.53
2019-03-19T00:47:50.634Z,0.70
2019-03-19T00:50:20.271Z,0.60
2019-03-19T00:52:49.664Z,0.60
2019-03-19T00:55:19.088Z,0.70
2019-03-19T00:57:48.503Z,0.60
2019-03-19T01:00:19.935Z,0.50
2019-03-19T01:02:49.424Z,0.60
2019-03-19T01:05:18.924Z,0.60
2019-03-19T01:07:48.448Z,0.60
2019-03-19T01:10:18.030Z,0.60
2019-03-19T01:12:47.523Z,0.70
2019-03-19T01:15:16.995Z,0.70
2019-03-19T01:17:46.476Z,0.60
2019-03-19T01:20:16.450Z,0.60
2019-03-19T01:22:46.830Z,0.60
2019-03-19T01:25:16.282Z,0.60
2019-03-19T01:27:45.726Z,0.50
2019-03-19T01:30:16.237Z,0.63
2019-03-19T01:32:45.656Z,0.60
2019-03-19T01:35:15.099Z,0.50
2019-03-19T01:37:44.548Z,0.60
2019-03-19T01:40:14.269Z,0.63
2019-03-19T01:42:43.704Z,0.70
2019-03-19T01:45:13.823Z,0.60
2019-03-19T01:47:43.252Z,0.70
2019-03-19T01:50:13.984Z,0.63
2019-03-19T01:52:43.494Z,0.60
2019-03-19T01:55:16.426Z,0.57
2019-03-19T01:57:45.851Z,0.70
2019-03-19T02:00:16.525Z,0.70
2019-03-19T02:02:46.088Z,0.60
2019-03-19T02:05:15.658Z,0.60
2019-03-19T02:07:45.092Z,0.60
2019-03-19T02:10:15.058Z,0.77
2019-03-19T02:12:44.733Z,0.70
2019-03-19T02:15:17.393Z,0.60
2019-03-19T02:17:46.880Z,0.60
2019-03-19T02:20:18.364Z,0.50
2019-03-19T02:22:47.912Z,0.63
2019-03-19T02:25:17.326Z,0.50
2019-03-19T02:27:46.799Z,0.50
2019-03-19T02:30:17.040Z,0.70
2019-03-19T02:32:46.503Z,0.80
2019-03-19T02:35:16.011Z,0.70
2019-03-19T02:37:45.492Z,0.80
2019-03-19T02:40:16.246Z,0.57
2019-03-19T02:42:45.615Z,0.70
2019-03-19T02:45:15.464Z,0.70
2019-03-19T02:47:45.049Z,0.60
2019-03-19T02:50:15.787Z,0.70
2019-03-19T02:52:45.244Z,0.63
2019-03-19T02:55:14.812Z,0.63
2019-03-19T02:57:44.180Z,0.53
2019-03-19T03:00:19.612Z,0.50
2019-03-19T03:02:49.050Z,0.77
2019-03-19T03:05:19.942Z,0.70
2019-03-19T03:07:49.424Z,0.60
2019-03-19T03:10:18.973Z,0.60
2019-03-19T03:12:48.439Z,0.50
2019-03-19T03:15:17.820Z,0.60
2019-03-19T03:17:47.305Z,0.60
2019-03-19T03:20:17.182Z,0.70
2019-03-19T03:22:47.141Z,0.53
2019-03-19T03:25:17.533Z,0.80
2019-03-19T03:27:47.007Z,0.80
2019-03-19T03:30:18.051Z,0.60
2019-03-19T03:32:47.469Z,0.60
2019-03-19T03:35:16.897Z,0.57
2019-03-19T03:37:46.495Z,0.70
2019-03-19T03:40:16.996Z,0.70
2019-03-19T03:42:46.467Z,0.60
2019-03-19T03:45:17.037Z,0.50
2019-03-19T03:47:46.575Z,0.60
2019-03-19T03:50:16.847Z,0.67
2019-03-19T03:52:46.365Z,0.80
2019-03-19T03:55:17.776Z,0.60
2019-03-19T03:57:47.316Z,0.70
2019-03-19T04:00:21.101Z,0.50
2019-03-19T04:02:50.649Z,0.70
2019-03-19T04:05:20.328Z,0.60
2019-03-19T04:07:49.738Z,0.60
2019-03-19T04:10:19.658Z,0.60
2019-03-19T04:12:49.169Z,0.60
2019-03-19T04:15:18.933Z,0.70
2019-03-19T04:17:48.361Z,0.73
2019-03-19T04:20:18.284Z,0.60
2019-03-19T04:22:47.869Z,0.60
2019-03-19T04:25:17.333Z,0.60
2019-03-19T04:27:46.809Z,0.80
2019-03-19T04:30:19.996Z,0.70
2019-03-19T04:32:51.175Z,0.60
2019-03-19T04:35:20.591Z,0.63
2019-03-19T04:37:50.098Z,0.60
2019-03-19T04:40:19.514Z,0.60
2019-03-19T04:42:49.059Z,0.70
2019-03-19T04:45:18.592Z,0.50
2019-03-19T04:47:48.030Z,0.50
2019-03-19T04:50:17.762Z,0.70
2019-03-19T04:52:47.219Z,0.60
2019-03-19T04:55:17.403Z,0.70
2019-03-19T04:57:46.788Z,0.60
2019-03-19T05:00:19.862Z,0.70
2019-03-19T05:02:49.276Z,0.70
2019-03-19T05:05:18.945Z,0.73
2019-03-19T05:07:48.335Z,0.70
2019-03-19T05:10:18.470Z,0.60
2019-03-19T05:12:47.978Z,0.60
2019-03-19T05:15:17.518Z,0.70
2019-03-19T05:17:46.962Z,0.70
2019-03-19T05:20:17.480Z,0.60
2019-03-19T05:22:46.948Z,0.60
2019-03-19T05:25:16.352Z,0.60
2019-03-19T05:27:45.848Z,0.70
2019-03-19T05:30:19.050Z,0.60
2019-03-19T05:32:48.471Z,0.50
2019-03-19T05:35:17.921Z,0.77
2019-03-19T05:37:47.289Z,0.60
2019-03-19T05:40:17.531Z,0.60
2019-03-19T05:42:47.034Z,0.60
2019-03-19T05:45:16.792Z,0.60
2019-03-19T05:47:46.327Z,0.60
2019-03-19T05:50:20.196Z,0.70
2019-03-19T05:52:49.724Z,0.80
2019-03-19T05:55:19.227Z,0.70
2019-03-19T05:57:50.233Z,0.70
2019-03-19T06:00:21.750Z,0.60
2019-03-19T06:02:51.341Z,0.60
2019-03-19T06:05:21.451Z,0.70
2019-03-19T06:07:50.984Z,0.60
2019-03-19T06:10:20.507Z,0.70
2019-03-19T06:12:49.936Z,0.60
2019-03-19T06:15:19.502Z,0.60
2019-03-19T06:17:48.910Z,0.70
2019-03-19T06:20:21.381Z,0.50
2019-03-19T06:22:50.789Z,0.70
2019-03-19T06:25:20.246Z,0.70
2019-03-19T06:27:59.849Z,0.67
2019-03-19T06:30:26.694Z,0.70
2019-03-19T06:32:56.093Z,0.70
2019-03-19T06:35:25.610Z,0.70
2019-03-19T06:37:55.025Z,0.60
2019-03-19T06:40:24.499Z,0.60
2019-03-19T06:42:53.871Z,0.70
2019-03-19T06:45:23.568Z,0.70
2019-03-19T06:47:52.909Z,0.70
2019-03-19T06:50:22.497Z,0.60
2019-03-19T06:52:51.938Z,0.70
2019-03-19T06:55:21.667Z,0.70
2019-03-19T06:57:51.162Z,0.60
2019-03-19T07:00:23.253Z,0.50
2019-03-19T07:02:52.730Z,0.60
2019-03-19T07:05:22.716Z,0.60
2019-03-19T07:07:52.185Z,0.60
2019-03-19T07:10:22.248Z,0.70
2019-03-19T07:12:51.655Z,0.60
2019-03-19T07:15:23.206Z,0.53
2019-03-19T07:17:52.724Z,0.50
2019-03-19T07:20:26.836Z,0.50
2019-03-19T07:22:56.258Z,0.60
2019-03-19T07:25:25.754Z,0.57
2019-03-19T07:27:55.245Z,0.63
2019-03-19T07:30:25.819Z,0.60
2019-03-19T07:32:55.264Z,0.63
2019-03-19T07:35:24.676Z,0.60
2019-03-19T07:37:54.178Z,0.60
2019-03-19T07:40:23.569Z,0.70
2019-03-19T07:42:53.199Z,0.60
2019-03-19T07:45:26.179Z,0.60
2019-03-19T07:47:55.658Z,0.50
2019-03-19T07:50:25.424Z,0.60
2019-03-19T07:52:55.068Z,0.60
2019-03-19T07:55:24.493Z,0.60
2019-03-19T07:57:54.023Z,0.60
2019-03-19T08:00:23.685Z,0.50
2019-03-19T08:02:53.083Z,0.60
2019-03-19T08:05:32.520Z,0.53
2019-03-19T08:07:53.673Z,0.60
2019-03-19T08:10:23.072Z,0.60
2019-03-19T08:12:52.670Z,0.50
2019-03-19T08:15:22.399Z,0.50
2019-03-19T08:17:51.814Z,0.57
2019-03-19T08:20:22.971Z,0.50
2019-03-19T08:22:54.092Z,0.60
2019-03-19T08:25:25.161Z,0.53
2019-03-19T08:27:56.350Z,0.60
2019-03-19T08:30:27.669Z,0.50
2019-03-19T08:32:58.791Z,0.57
2019-03-19T08:35:28.306Z,0.60
2019-03-19T08:37:57.797Z,0.50
2019-03-19T08:40:27.391Z,0.50
2019-03-19T08:42:58.323Z,0.50
2019-03-19T08:45:28.081Z,0.53
2019-03-19T08:47:57.523Z,0.50
2019-03-19T08:50:27.036Z,0.50
2019-03-19T08:52:56.515Z,0.40
2019-03-19T08:55:25.973Z,0.57
2019-03-19T08:57:55.397Z,0.50
2019-03-19T09:00:28.289Z,0.40
2019-03-19T09:02:57.684Z,0.43
2019-03-19T09:05:27.185Z,0.53
2019-03-19T09:07:56.677Z,0.50
2019-03-19T09:10:26.133Z,0.60
2019-03-19T09:12:55.543Z,0.50
2019-03-19T09:15:26.790Z,0.40
2019-03-19T09:17:56.417Z,0.40
2019-03-19T09:20:26.078Z,0.40
2019-03-19T09:22:55.483Z,0.40
2019-03-19T09:25:24.897Z,0.40
2019-03-19T09:27:54.346Z,0.50
2019-03-19T09:30:24.715Z,0.50
2019-03-19T09:32:54.195Z,0.47
2019-03-19T09:35:26.047Z,0.47
2019-03-19T09:37:58.989Z,0.40
2019-03-19T09:40:25.946Z,0.40
2019-03-19T09:42:55.435Z,0.50
2019-03-19T09:45:25.030Z,0.40
2019-03-19T09:47:54.413Z,0.50
2019-03-19T09:50:27.069Z,0.50
2019-03-19T09:52:56.977Z,0.50
2019-03-19T09:55:26.457Z,0.40
2019-03-19T09:57:56.018Z,0.40
2019-03-19T10:00:25.498Z,0.40
2019-03-19T10:02:54.898Z,0.50
2019-03-19T10:05:24.415Z,0.50
2019-03-19T10:07:55.537Z,0.40
2019-03-19T10:10:25.324Z,0.40
2019-03-19T10:12:54.713Z,0.40
2019-03-19T10:15:24.308Z,0.50
2019-03-19T10:17:53.736Z,0.40
2019-03-19T10:20:24.833Z,0.40
2019-03-19T10:22:54.267Z,0.40
2019-03-19T10:25:23.683Z,0.40
2019-03-19T10:27:53.143Z,0.40
2019-03-19T10:30:25.508Z,0.40
2019-03-19T10:32:55.000Z,0.40
2019-03-19T10:35:24.505Z,0.40
2019-03-19T10:37:53.996Z,0.40
2019-03-19T10:40:23.775Z,0.40
2019-03-19T10:42:54.154Z,0.40
2019-03-19T10:45:24.446Z,0.50
2019-03-19T10:47:53.818Z,0.40
2019-03-19T10:50:25.378Z,0.30
2019-03-19T10:52:54.913Z,0.40
2019-03-19T10:55:24.413Z,0.33
2019-03-19T10:57:53.823Z,0.40
2019-03-19T11:00:24.145Z,0.40
2019-03-19T11:02:54.105Z,0.40
2019-03-19T11:05:24.233Z,0.40
2019-03-19T11:07:53.773Z,0.30
2019-03-19T11:10:23.405Z,0.30
2019-03-19T11:12:52.894Z,0.40
2019-03-19T11:15:23.515Z,0.30
2019-03-19T11:17:53.038Z,0.37
2019-03-19T11:20:22.553Z,0.30
2019-03-19T11:22:52.026Z,0.30
2019-03-19T11:25:26.449Z,0.33
2019-03-19T11:27:56.040Z,0.30
2019-03-19T11:30:26.280Z,0.30
2019-03-19T11:32:55.795Z,0.30
2019-03-19T11:35:25.502Z,0.40
2019-03-19T11:37:54.984Z,0.40
2019-03-19T11:40:25.911Z,0.30
2019-03-19T11:42:55.568Z,0.30
2019-03-19T11:45:25.118Z,0.30
2019-03-19T11:47:54.632Z,0.30
2019-03-19T11:50:28.284Z,0.30
2019-03-19T11:52:57.917Z,0.30
2019-03-19T11:55:27.494Z,0.30
2019-03-19T11:57:57.750Z,0.23
2019-03-19T12:00:29.836Z,0.30
2019-03-19T12:03:10.831Z,0.30
2019-03-19T12:05:30.593Z,0.40
2019-03-19T12:08:00.034Z,0.30
2019-03-19T12:10:29.456Z,0.30
2019-03-19T12:12:58.910Z,0.30
2019-03-19T12:15:28.487Z,0.20
2019-03-19T12:17:58.956Z,0.30
2019-03-19T12:20:28.532Z,0.30
2019-03-19T12:22:57.940Z,0.30
2019-03-19T12:25:27.388Z,0.30
2019-03-19T12:27:56.858Z,0.30
2019-03-19T12:30:26.649Z,0.20
2019-03-19T12:32:56.102Z,0.30
2019-03-19T12:35:25.704Z,0.23
2019-03-19T12:37:55.162Z,0.30
2019-03-19T12:40:35.879Z,0.20
2019-03-19T12:42:56.124Z,0.33
2019-03-19T12:45:25.636Z,0.20
2019-03-19T12:47:55.066Z,0.30
2019-03-19T12:50:25.549Z,0.37
2019-03-19T12:52:55.028Z,0.40
2019-03-19T12:55:24.656Z,0.27
2019-03-19T12:57:54.148Z,0.30
2019-03-19T13:00:34.041Z,0.30
2019-03-19T13:02:58.622Z,0.40
2019-03-19T13:05:28.004Z,0.20
2019-03-19T13:07:57.478Z,0.30
2019-03-19T13:10:27.038Z,0.30
2019-03-19T13:12:56.392Z,0.30
2019-03-19T13:15:25.913Z,0.30
2019-03-19T13:17:55.345Z,0.30
2019-03-19T13:20:24.838Z,0.30
2019-03-19T13:22:54.397Z,0.30
2019-03-19T13:25:24.723Z,0.30
2019-03-19T13:27:54.279Z,0.30
2019-03-19T13:30:25.136Z,0.37
2019-03-19T13:32:54.576Z,0.30
2019-03-19T13:35:24.001Z,0.30
2019-03-19T13:37:53.553Z,0.30
2019-03-19T13:40:23.046Z,0.30
2019-03-19T13:42:52.450Z,0.30
2019-03-19T13:45:23.967Z,0.30
2019-03-19T13:47:53.503Z,0.30
2019-03-19T13:50:23.588Z,0.30
2019-03-19T13:52:53.060Z,0.30
2019-03-19T13:55:25.386Z,0.30
2019-03-19T13:57:54.804Z,0.30
2019-03-19T14:00:24.297Z,0.30
2019-03-19T14:02:53.710Z,0.20
2019-03-19T14:05:23.194Z,0.30
2019-03-19T14:07:52.860Z,0.30
2019-03-19T14:10:22.416Z,0.30
2019-03-19T14:12:51.912Z,0.30
2019-03-19T14:15:25.068Z,0.30
2019-03-19T14:17:54.586Z,0.30
2019-03-19T14:20:24.017Z,0.30
2019-03-19T14:22:53.546Z,0.30
2019-03-19T14:25:23.879Z,0.30
2019-03-19T14:27:53.361Z,0.30
2019-03-19T14:30:23.726Z,0.20
2019-03-19T14:32:53.215Z,0.27
2019-03-19T14:35:22.699Z,0.20
2019-03-19T14:37:52.225Z,0.30
2019-03-19T14:40:24.037Z,0.30
2019-03-19T14:42:53.552Z,0.30
2019-03-19T14:45:22.932Z,0.20
2019-03-19T14:47:52.482Z,0.30
2019-03-19T14:50:23.973Z,0.27
2019-03-19T14:52:53.930Z,0.23
2019-03-19T14:55:23.400Z,0.27
2019-03-19T14:57:52.776Z,0.30
2019-03-19T15:00:23.830Z,0.20
2019-03-19T15:02:53.443Z,0.20
2019-03-19T15:05:22.903Z,0.30
2019-03-19T15:07:52.431Z,0.20
2019-03-19T15:10:22.780Z,0.30
2019-03-19T15:12:52.413Z,0.30
2019-03-19T15:15:22.456Z,0.30
2019-03-19T15:17:51.917Z,0.30
2019-03-19T15:20:22.861Z,0.30
2019-03-19T15:22:52.439Z,0.30
2019-03-19T15:25:21.965Z,0.40
2019-03-19T15:27:51.502Z,0.30
2019-03-19T15:30:21.307Z,0.30
2019-03-19T15:32:50.676Z,0.20
2019-03-19T15:35:20.194Z,0.30
2019-03-19T15:37:49.720Z,0.30
2019-03-19T15:40:21.087Z,0.30
2019-03-19T15:42:50.509Z,0.20
2019-03-19T15:45:27.964Z,0.30
2019-03-19T15:47:57.463Z,0.20
2019-03-19T15:50:26.939Z,0.30
2019-03-19T15:52:56.348Z,0.30
2019-03-19T15:55:25.757Z,0.30
2019-03-19T15:57:55.381Z,0.30
2019-03-19T16:00:24.838Z,0.20
2019-03-19T16:02:54.245Z,0.30
2019-03-19T16:05:23.661Z,0.30
2019-03-19T16:07:54.040Z,0.20
2019-03-19T16:10:23.611Z,0.30
2019-03-19T16:12:53.203Z,0.20
2019-03-19T16:15:23.336Z,0.30
2019-03-19T16:17:52.849Z,0.30
2019-03-19T16:20:22.904Z,0.30
2019-03-19T16:22:52.404Z,0.30
2019-03-19T16:25:21.938Z,0.30
2019-03-19T16:27:52.273Z,0.30
2019-03-19T16:30:21.820Z,0.20
2019-03-19T16:32:51.295Z,0.30
2019-03-19T16:35:20.934Z,0.30
2019-03-19T16:37:50.435Z,0.30
2019-03-19T16:40:20.877Z,0.20
2019-03-19T16:42:50.562Z,0.30
2019-03-19T16:45:20.134Z,0.30
2019-03-19T16:47:49.588Z,0.30
2019-03-19T16:50:20.146Z,0.30
2019-03-19T16:52:49.657Z,0.30
2019-03-19T16:55:20.010Z,0.30
2019-03-19T16:57:49.725Z,0.30
2019-03-19T17:00:21.434Z,0.30
2019-03-19T17:02:51.974Z,0.30
2019-03-19T17:05:21.595Z,0.30
2019-03-19T17:07:51.350Z,0.30
2019-03-19T17:10:33.598Z,0.27
2019-03-19T17:13:03.003Z,0.20
2019-03-19T17:15:32.460Z,0.20
2019-03-19T17:18:02.370Z,0.30
2019-03-19T17:20:31.842Z,0.30
2019-03-19T17:23:01.462Z,0.30
2019-03-19T17:25:32.252Z,0.30
2019-03-19T17:28:01.682Z,0.30
2019-03-19T17:30:36.288Z,0.30
2019-03-19T17:33:05.802Z,0.30
2019-03-19T17:35:35.228Z,0.30
2019-03-19T17:38:04.713Z,0.30
2019-03-19T17:40:41.418Z,0.30
2019-03-19T17:43:05.505Z,0.30
2019-03-19T17:45:35.011Z,0.30
2019-03-19T17:48:04.495Z,0.30
2019-03-19T17:50:36.108Z,0.30
2019-03-19T17:53:06.169Z,0.30
2019-03-19T17:55:36.558Z,0.20
2019-03-19T17:58:06.057Z,0.30
2019-03-19T18:00:42.915Z,0.30
2019-03-19T18:03:12.424Z,0.30
2019-03-19T18:05:41.881Z,0.30
2019-03-19T18:08:11.314Z,0.30
2019-03-19T18:10:40.753Z,0.40
2019-03-19T18:13:10.182Z,0.30
2019-03-19T18:15:39.599Z,0.30
2019-03-19T18:18:09.072Z,0.30
2019-03-19T18:20:38.499Z,0.40
2019-03-19T18:23:07.974Z,0.40
2019-03-19T18:25:37.406Z,0.30
2019-03-19T18:28:06.895Z,0.30
2019-03-19T18:30:36.440Z,0.30
2019-03-19T18:33:05.988Z,0.40
2019-03-19T18:35:35.482Z,0.30
2019-03-19T18:38:05.055Z,0.30
2019-03-19T18:40:34.525Z,0.30
2019-03-19T18:43:04.066Z,0.30
2019-03-19T18:45:33.517Z,0.30
2019-03-19T18:48:03.021Z,0.30
2019-03-19T18:50:32.557Z,0.30
2019-03-19T18:53:01.991Z,0.33
2019-03-19T18:55:31.509Z,0.40
2019-03-19T18:58:00.931Z,0.30
2019-03-19T19:00:30.425Z,0.30
2019-03-19T19:02:59.891Z,0.30
2019-03-19T19:05:29.410Z,0.30
2019-03-19T19:07:58.863Z,0.30
2019-03-19T19:10:28.401Z,0.40
2019-03-19T19:12:57.838Z,0.30
2019-03-19T19:15:27.261Z,0.40
2019-03-19T19:17:56.748Z,0.40
2019-03-19T19:20:26.207Z,0.30
2019-03-19T19:22:55.666Z,0.40
2019-03-19T19:25:26.379Z,0.30
2019-03-19T19:27:55.886Z,0.30
2019-03-19T19:30:30.137Z,0.40
2019-03-19T19:33:01.838Z,0.40
2019-03-19T19:35:30.733Z,0.40
2019-03-19T19:38:00.161Z,0.30
2019-03-19T19:40:29.591Z,0.30
2019-03-19T19:42:59.107Z,0.30
2019-03-19T19:45:28.543Z,0.37
2019-03-19T19:47:58.025Z,0.30
2019-03-19T19:50:27.451Z,0.30
2019-03-19T19:52:56.888Z,0.30
2019-03-19T19:55:26.339Z,0.40
2019-03-19T19:57:55.798Z,0.40
2019-03-19T20:00:25.200Z,0.40
2019-03-19T20:02:54.666Z,0.30
2019-03-19T20:05:24.136Z,0.40
2019-03-19T20:07:53.652Z,0.40
2019-03-19T20:10:25.191Z,0.30
2019-03-19T20:12:54.628Z,0.30
2019-03-19T20:15:24.239Z,0.40
2019-03-19T20:17:53.649Z,0.30
2019-03-19T20:20:27.476Z,0.30
2019-03-19T20:22:56.982Z,0.40
2019-03-19T20:25:26.453Z,0.40
2019-03-19T20:27:55.927Z,0.40
2019-03-19T20:30:28.567Z,0.40
2019-03-19T20:32:57.973Z,0.40
2019-03-19T20:35:27.488Z,0.30
2019-03-19T20:37:56.899Z,0.37
2019-03-19T20:40:26.371Z,0.40
2019-03-19T20:42:55.927Z,0.30
2019-03-19T20:45:26.461Z,0.40
2019-03-19T20:47:55.870Z,0.40
2019-03-19T20:50:30.170Z,0.40
2019-03-19T20:52:59.695Z,0.30
2019-03-19T20:55:29.109Z,0.40
2019-03-19T20:57:58.591Z,0.30
2019-03-19T21:00:28.106Z,0.30
2019-03-19T21:02:57.540Z,0.40
2019-03-19T21:05:26.996Z,0.40
2019-03-19T21:07:56.459Z,0.40
2019-03-19T21:10:26.172Z,0.40
2019-03-19T21:12:55.665Z,0.40
2019-03-19T21:15:30.190Z,0.40
2019-03-19T21:17:59.662Z,0.40
2019-03-19T21:20:29.133Z,0.40
2019-03-19T21:22:58.627Z,0.30
2019-03-19T21:25:28.057Z,0.30
2019-03-19T21:27:57.551Z,0.40
2019-03-19T21:30:27.010Z,0.30
2019-03-19T21:32:56.449Z,0.30
2019-03-19T21:35:25.935Z,0.30
2019-03-19T21:37:55.395Z,0.40
2019-03-19T21:40:24.774Z,0.40
2019-03-19T21:42:54.337Z,0.40
2019-03-19T21:45:23.965Z,0.40
2019-03-19T21:47:53.386Z,0.40
2019-03-19T21:50:23.923Z,0.40
2019-03-19T21:52:53.421Z,0.30
2019-03-19T21:55:22.923Z,0.50
2019-03-19T21:57:52.413Z,0.30
2019-03-19T22:00:26.031Z,0.30
2019-03-19T22:02:55.487Z,0.40
2019-03-19T22:05:25.022Z,0.30
2019-03-19T22:07:54.696Z,0.40
2019-03-19T22:10:24.181Z,0.30
2019-03-19T22:12:53.647Z,0.30
2019-03-19T22:15:26.164Z,0.40
2019-03-19T22:17:55.653Z,0.40
2019-03-19T22:20:25.178Z,0.30
2019-03-19T22:22:54.615Z,0.30
2019-03-19T22:25:24.073Z,0.40
2019-03-19T22:27:53.560Z,0.40
2019-03-19T22:30:22.976Z,0.30
2019-03-19T22:32:52.365Z,0.40
2019-03-19T22:35:21.802Z,0.30
2019-03-19T22:37:51.261Z,0.33
2019-03-19T22:40:20.826Z,0.40
2019-03-19T22:42:50.250Z,0.40
2019-03-19T22:45:20.132Z,0.40
2019-03-19T22:47:49.617Z,0.33
2019-03-19T22:50:19.400Z,0.30
2019-03-19T22:52:48.842Z,0.50
2019-03-19T22:55:28.464Z,0.40
2019-03-19T22:57:49.509Z,0.40
2019-03-19T23:00:31.547Z,0.40
2019-03-19T23:03:01.049Z,0.40
2019-03-19T23:05:30.593Z,0.40
2019-03-19T23:08:00.179Z,0.40
2019-03-19T23:10:29.632Z,0.40
2019-03-19T23:12:59.147Z,0.40
2019-03-19T23:15:28.656Z,0.40
2019-03-19T23:17:58.136Z,0.40
2019-03-19T23:20:28.037Z,0.40
2019-03-19T23:22:57.487Z,0.30
2019-03-19T23:25:26.926Z,0.40
2019-03-19T23:27:56.406Z,0.40
2019-03-19T23:30:26.089Z,0.40
2019-03-19T23:32:55.698Z,0.50
2019-03-19T23:35:25.228Z,0.40
2019-03-19T23:37:54.672Z,0.50
2019-03-19T23:40:24.220Z,0.40
2019-03-19T23:42:54.096Z,0.40
2019-03-19T23:45:23.529Z,0.43
2019-03-19T23:47:53.048Z,0.40
2019-03-19T23:50:22.451Z,0.40
2019-03-19T23:52:51.872Z,0.30
2019-03-19T23:55:21.366Z,0.40
2019-03-19T23:57:50.808Z,0.40
